createdAt,value
2022-10-05T00:02:19.368Z,7.20
2022-10-05T00:07:24.668Z,7.10
2022-10-05T00:12:30.686Z,7.10
2022-10-05T00:17:35.839Z,7.10
2022-10-05T00:22:39.194Z,7.00
2022-10-05T00:27:42.574Z,6.90
2022-10-05T00:32:48.019Z,6.90
2022-10-05T00:37:55.793Z,6.80
2022-10-05T00:43:16.626Z,6.80
2022-10-05T00:48:30.700Z,6.70
2022-10-05T00:53:43.599Z,6.60
2022-10-05T00:58:57.209Z,6.50
2022-10-05T01:04:13.935Z,6.40
2022-10-05T01:09:26.711Z,6.30
2022-10-05T01:14:40.570Z,6.30
2022-10-05T01:20:13.033Z,6.20
2022-10-05T01:25:26.032Z,6.20
2022-10-05T01:30:36.194Z,6.10
2022-10-05T01:35:47.679Z,6.10
2022-10-05T01:41:00.264Z,6.00
2022-10-05T01:46:15.642Z,5.90
2022-10-05T01:51:28.941Z,6.00
2022-10-05T01:56:40.638Z,5.90
2022-10-05T02:01:51.100Z,5.90
2022-10-05T02:06:55.159Z,5.90
2022-10-05T02:12:05.976Z,5.80
2022-10-05T02:17:16.326Z,5.80
2022-10-05T02:22:24.429Z,5.80
2022-10-05T02:27:31.208Z,5.80
2022-10-05T02:32:39.806Z,5.80
2022-10-05T02:37:54.589Z,5.80
2022-10-05T02:43:06.509Z,5.70
2022-10-05T02:48:16.574Z,5.70
2022-10-05T02:53:26.725Z,5.60
2022-10-05T02:58:37.241Z,5.50
2022-10-05T03:03:48.417Z,5.60
2022-10-05T03:09:01.127Z,5.60
2022-10-05T03:14:11.464Z,5.60
2022-10-05T03:19:32.602Z,5.50
2022-10-05T03:24:47.678Z,5.50
2022-10-05T03:29:58.814Z,5.50
2022-10-05T03:35:07.858Z,5.50
2022-10-05T03:40:26.770Z,5.40
2022-10-05T03:45:37.594Z,5.30
2022-10-05T03:50:47.156Z,5.20
2022-10-05T03:55:55.320Z,5.10
2022-10-05T04:01:03.484Z,5.10
2022-10-05T04:06:13.678Z,5.20
2022-10-05T04:11:22.510Z,5.30
2022-10-05T04:16:29.007Z,5.30
2022-10-05T04:21:39.331Z,5.30
2022-10-05T04:26:49.894Z,5.40
2022-10-05T04:32:14.295Z,5.30
2022-10-05T04:37:23.226Z,5.20
2022-10-05T04:42:33.371Z,5.00
2022-10-05T04:47:59.968Z,4.90
2022-10-05T04:53:14.061Z,5.00
2022-10-05T04:58:28.830Z,5.00
2022-10-05T05:04:05.627Z,5.00
2022-10-05T05:09:29.222Z,5.00
2022-10-05T05:15:19.265Z,5.00
2022-10-05T05:20:27.063Z,4.90
2022-10-05T05:25:40.334Z,4.80
2022-10-05T05:30:49.148Z,4.80
2022-10-05T05:36:28.377Z,4.80
2022-10-05T05:41:38.834Z,4.90
2022-10-05T05:47:02.848Z,4.80
2022-10-05T05:52:15.747Z,4.80
2022-10-05T05:57:25.278Z,4.90
2022-10-05T06:02:33.143Z,4.90
2022-10-05T06:07:39.268Z,5.00
2022-10-05T06:12:48.036Z,5.10
2022-10-05T06:17:55.310Z,5.10
2022-10-05T06:23:04.597Z,5.30
2022-10-05T06:28:12.948Z,5.80
2022-10-05T06:33:25.613Z,6.50
2022-10-05T06:38:56.594Z,6.90
2022-10-05T06:44:06.289Z,8.00
2022-10-05T06:49:30.674Z,9.10
2022-10-05T06:54:43.886Z,9.20
2022-10-05T06:59:55.286Z,9.20
2022-10-05T07:05:34.577Z,9.20
2022-10-05T07:10:48.174Z,9.30
2022-10-05T07:16:02.839Z,9.50
2022-10-05T07:21:16.691Z,9.80
2022-10-05T07:26:26.315Z,10.00
2022-10-05T07:31:36.894Z,10.30
2022-10-05T07:37:03.022Z,10.50
2022-10-05T07:42:19.407Z,10.70
2022-10-05T07:47:32.000Z,11.00
2022-10-05T07:52:39.922Z,11.50
2022-10-05T07:57:51.032Z,11.80
2022-10-05T08:03:00.416Z,11.90
2022-10-05T08:08:15.533Z,12.60
2022-10-05T08:13:25.761Z,14.30
2022-10-05T08:18:52.391Z,16.50
2022-10-05T08:23:58.954Z,19.20
2022-10-05T08:29:14.872Z,20.70
2022-10-05T08:34:31.349Z,22.30
2022-10-05T08:39:40.660Z,22.20
2022-10-05T08:45:44.559Z,24.10
2022-10-05T08:51:08.421Z,24.20
2022-10-05T08:56:35.429Z,23.60
2022-10-05T09:01:58.463Z,24.10
2022-10-05T09:07:20.330Z,24.70
2022-10-05T09:12:44.385Z,24.40
2022-10-05T09:18:39.644Z,24.80
2022-10-05T09:23:46.467Z,25.00
2022-10-05T09:29:05.097Z,25.30
2022-10-05T09:34:40.507Z,25.50
2022-10-05T09:40:17.238Z,25.10
2022-10-05T09:45:54.977Z,24.50
2022-10-05T09:51:30.641Z,23.70
2022-10-05T09:56:55.557Z,22.40
2022-10-05T10:02:21.337Z,21.30
2022-10-05T10:07:56.439Z,21.10
2022-10-05T10:13:25.704Z,20.30
2022-10-05T10:18:46.850Z,20.20
2022-10-05T10:24:14.899Z,20.10
2022-10-05T10:29:50.666Z,20.50
2022-10-05T10:35:20.150Z,20.90
2022-10-05T10:40:38.093Z,20.90
2022-10-05T10:45:51.847Z,21.40
2022-10-05T10:51:26.906Z,21.70
2022-10-05T10:57:08.821Z,22.20
2022-10-05T11:02:38.120Z,22.40
2022-10-05T11:08:24.259Z,22.50
2022-10-05T11:13:55.975Z,22.70
2022-10-05T11:25:22.763Z,22.90
2022-10-05T11:30:48.842Z,23.00
2022-10-05T11:36:26.058Z,23.10
2022-10-05T11:41:52.619Z,23.10
2022-10-05T11:47:01.939Z,23.30
2022-10-05T11:52:14.203Z,23.40
2022-10-05T11:57:25.638Z,23.60
2022-10-05T12:02:47.779Z,23.70
2022-10-05T12:08:04.205Z,23.80
2022-10-05T12:13:28.667Z,23.90
2022-10-05T12:18:53.521Z,23.80
2022-10-05T12:24:00.532Z,23.80
2022-10-05T12:29:13.603Z,23.80
2022-10-05T12:34:27.390Z,23.70
2022-10-05T12:39:40.430Z,23.60
2022-10-05T12:45:07.178Z,23.50
2022-10-05T12:50:22.234Z,23.70
2022-10-05T12:55:31.035Z,23.80
2022-10-05T13:00:40.833Z,23.80
2022-10-05T13:05:52.601Z,23.90
2022-10-05T13:11:02.752Z,23.90
2022-10-05T13:16:24.023Z,24.00
2022-10-05T13:21:35.001Z,23.90
2022-10-05T13:26:43.528Z,23.70
2022-10-05T13:31:54.541Z,23.60
2022-10-05T13:37:10.816Z,23.60
2022-10-05T13:42:19.460Z,23.20
2022-10-05T13:47:32.803Z,23.30
2022-10-05T13:52:47.428Z,23.30
2022-10-05T13:58:00.154Z,23.40
2022-10-05T14:03:05.192Z,23.40
2022-10-05T14:08:18.443Z,23.20
2022-10-05T14:13:26.787Z,23.20
2022-10-05T14:18:32.877Z,23.10
2022-10-05T14:23:36.878Z,23.10
2022-10-05T14:28:43.922Z,22.90
2022-10-05T14:33:48.729Z,22.80
2022-10-05T14:38:56.321Z,22.60
2022-10-05T14:44:05.349Z,22.50
2022-10-05T14:49:22.306Z,22.40
2022-10-05T14:54:36.418Z,22.30
2022-10-05T15:00:04.677Z,22.20
2022-10-05T15:10:52.833Z,21.90
2022-10-05T15:16:01.150Z,21.70
2022-10-05T15:21:26.588Z,21.70
2022-10-05T15:26:48.760Z,21.40
2022-10-05T15:31:59.286Z,21.20
2022-10-05T15:37:15.211Z,21.00
2022-10-05T15:42:22.729Z,20.80
2022-10-05T15:47:35.304Z,20.70
2022-10-05T15:52:47.385Z,20.50
2022-10-05T15:57:59.704Z,20.40
2022-10-05T16:03:13.158Z,20.10
2022-10-05T16:08:51.706Z,20.00
2022-10-05T16:14:05.371Z,19.80
2022-10-05T16:19:16.634Z,19.40
2022-10-05T16:24:40.904Z,19.20
2022-10-05T16:29:53.374Z,19.00
2022-10-05T16:35:07.958Z,18.70
2022-10-05T16:40:21.573Z,18.50
2022-10-05T16:45:45.612Z,18.30
2022-10-05T16:51:08.710Z,18.10
2022-10-05T16:56:18.380Z,17.70
2022-10-05T17:01:37.316Z,17.30
2022-10-05T17:07:00.469Z,17.00
2022-10-05T17:12:20.724Z,16.80
2022-10-05T17:17:38.892Z,16.70
2022-10-05T17:22:52.374Z,16.60
2022-10-05T17:27:58.531Z,16.50
2022-10-05T17:33:14.757Z,16.50
2022-10-05T17:38:25.621Z,16.40
2022-10-05T17:43:31.928Z,16.30
2022-10-05T17:49:02.500Z,16.10
2022-10-05T17:54:38.582Z,15.90
2022-10-05T17:59:48.506Z,15.60
2022-10-05T18:05:02.018Z,15.30
2022-10-05T18:10:27.823Z,15.20
2022-10-05T18:15:48.691Z,15.20
2022-10-05T18:21:32.300Z,15.10
2022-10-05T18:26:44.974Z,15.00
2022-10-05T18:32:01.236Z,14.90
2022-10-05T18:37:29.716Z,14.70
2022-10-05T18:42:40.486Z,14.40
2022-10-05T18:47:55.905Z,14.20
2022-10-05T18:53:15.891Z,14.00
2022-10-05T18:58:26.017Z,13.80
2022-10-05T19:03:40.644Z,13.60
2022-10-05T19:08:54.018Z,13.30
2022-10-05T19:14:06.681Z,13.10
2022-10-05T19:19:45.080Z,13.10
2022-10-05T19:24:59.833Z,13.10
2022-10-05T19:30:19.112Z,13.10
2022-10-05T19:35:33.405Z,13.20
2022-10-05T19:40:44.771Z,13.20
2022-10-05T19:46:01.662Z,13.00
2022-10-05T19:51:16.075Z,12.90
2022-10-05T19:56:22.590Z,12.90
2022-10-05T20:01:30.900Z,13.00
2022-10-05T20:06:36.101Z,13.20
2022-10-05T20:11:50.782Z,13.30
2022-10-05T20:17:43.632Z,13.50
2022-10-05T20:22:48.329Z,13.80
2022-10-05T20:27:53.253Z,14.00
2022-10-05T20:32:59.594Z,13.80
2022-10-05T20:38:04.423Z,13.50
2022-10-05T20:43:08.264Z,13.30
2022-10-05T20:48:11.945Z,13.10
2022-10-05T20:53:16.618Z,13.00
2022-10-05T20:58:19.864Z,12.90
2022-10-05T21:03:23.588Z,12.90
2022-10-05T21:08:28.879Z,12.70
2022-10-05T21:13:32.304Z,12.40
2022-10-05T21:18:35.705Z,12.20
2022-10-05T21:23:40.415Z,12.10
2022-10-05T21:28:43.786Z,12.10
2022-10-05T21:33:47.143Z,12.20
2022-10-05T21:38:52.885Z,12.30
2022-10-05T21:43:56.243Z,12.40
2022-10-05T21:48:59.581Z,12.50
2022-10-05T21:54:09.032Z,12.40
2022-10-05T21:59:14.515Z,12.30
2022-10-05T22:04:18.477Z,12.20
2022-10-05T22:09:23.149Z,12.20
2022-10-05T22:14:50.368Z,12.20
2022-10-05T22:19:54.796Z,12.10
2022-10-05T22:24:59.491Z,11.90
2022-10-05T22:30:03.819Z,11.80
2022-10-05T22:35:11.500Z,11.70
2022-10-05T22:40:16.550Z,11.60
2022-10-05T22:45:19.955Z,11.60
2022-10-05T22:50:23.391Z,11.50
2022-10-05T22:55:28.040Z,11.70
2022-10-05T23:00:53.366Z,12.00
2022-10-05T23:05:58.121Z,12.10
2022-10-05T23:11:06.387Z,12.40
2022-10-05T23:16:11.279Z,12.70
2022-10-05T23:21:14.631Z,12.80
2022-10-05T23:26:21.565Z,12.80
2022-10-05T23:31:27.084Z,12.70
2022-10-05T23:36:32.419Z,12.50
2022-10-05T23:41:37.124Z,12.40
2022-10-05T23:46:40.367Z,12.30
2022-10-05T23:51:44.957Z,12.20
2022-10-05T23:56:49.631Z,12.10
